Dades meteomassalio
Diari Summary for Diciembre 12, 2017 Units:  English    Metric   Both
« Previous Day
Next Day »
Diari Semanal Mensual Anual Personalitzat
  Maxima: Minima: Mijana:
Temperatura: TemperatureC °F -1.7 °F 5.6 °F
Rosada: DewpointC °F -7.0 °F -1.4 °F
Humitat: Humidity % 43 % 61 %
Velocitat del vent: WindSpeedKMH mph 0.0 mph 20.2 mph
Racha vent: WindSpeedGustKMH mph - -
Vent:- - WNW
Pressio: PressurehPa in 1007.7 in -
Pluja: 0.0 in    
Historical Graphs
 
 
Tabular Data for Diciembre 12, 2017
Time Temperature Dew Point Pressure Wind Wind Speed Wind Gust Humidity Rainfall Rate (Hourly) solar Conditions
TemperatureC °F DewpointC °F PressurehPa in Calm     Humidity % HourlyPrecipMM in SolarRadiationWatts/m^2 W/m2 Conditions
00:07 6.7 °F 2.6 °F 1007.7 in NNW 19.3 mph 19.3 mph 75 % 0.0 in 0.0 W/m2 CLR
00:12 6.1 °F 2.0 °F 1008.0 in NNW 30.6 mph 30.6 mph 75 % 0.0 in 0.0 W/m2 CLR
00:27 6.1 °F 1.8 °F 1008.4 in NW 18.5 mph 18.5 mph 74 % 0.0 in 0.0 W/m2 CLR
00:32 6.1 °F 1.8 °F 1008.4 in NW 20.4 mph 20.4 mph 74 % 0.0 in 0.0 W/m2 CLR
00:37 6.1 °F 2.0 °F 1008.4 in NW 20.4 mph 20.4 mph 75 % 0.0 in 0.0 W/m2 CLR
00:47 6.1 °F 1.8 °F 1008.7 in NW 18.5 mph 18.5 mph 74 % 0.0 in 0.0 W/m2 CLR
00:52 6.1 °F 2.0 °F 1009.0 in NW 24.1 mph 24.1 mph 75 % 0.0 in 0.0 W/m2 CLR
00:57 6.1 °F 1.8 °F 1009.0 in NNW 25.9 mph 25.9 mph 74 % 0.0 in 0.0 W/m2 CLR
01:07 6.1 °F 2.0 °F 1009.0 in NW 24.1 mph 24.1 mph 75 % 0.0 in 0.0 W/m2 CLR
01:13 6.1 °F 2.0 °F 1009.0 in NNW 18.5 mph 18.5 mph 75 % 0.0 in 0.0 W/m2 CLR
01:28 6.1 °F 1.8 °F 1009.4 in NNW 24.1 mph 24.1 mph 74 % 0.0 in 0.0 W/m2 CLR
01:43 6.1 °F 1.8 °F 1009.4 in NW 18.5 mph 18.5 mph 74 % 0.0 in 0.0 W/m2 CLR
01:48 6.1 °F 1.8 °F 1009.4 in WNW 18.5 mph 18.5 mph 74 % 0.0 in 0.0 W/m2 CLR
01:53 6.1 °F 1.6 °F 1009.7 in NNW 18.5 mph 18.5 mph 73 % 0.0 in 0.0 W/m2 CLR
01:58 6.1 °F 1.6 °F 1009.7 in NNW 20.4 mph 20.4 mph 73 % 0.0 in 0.0 W/m2 CLR
02:03 6.1 °F 1.6 °F 1009.7 in NNW 18.5 mph 18.5 mph 73 % 0.0 in 0.0 W/m2 CLR
02:13 6.1 °F 1.4 °F 1010.0 in NW 18.5 mph 18.5 mph 72 % 0.0 in 0.0 W/m2 CLR
02:18 6.1 °F 1.4 °F 1010.0 in NW 18.5 mph 18.5 mph 72 % 0.0 in 0.0 W/m2 CLR
02:23 6.1 °F 1.2 °F 1010.0 in NNW 18.5 mph 18.5 mph 71 % 0.0 in 0.0 W/m2 CLR
02:28 6.1 °F 1.2 °F 1010.0 in NW 16.7 mph 16.7 mph 71 % 0.0 in 0.0 W/m2 CLR
02:33 6.1 °F 1.1 °F 1010.0 in NW 18.5 mph 18.5 mph 70 % 0.0 in 0.0 W/m2 CLR
02:38 6.1 °F 1.1 °F 1010.4 in NNW 18.5 mph 18.5 mph 70 % 0.0 in 0.0 W/m2 CLR
02:43 6.1 °F 1.1 °F 1010.4 in NW 13.0 mph 13.0 mph 70 % 0.0 in 0.0 W/m2 CLR
02:48 5.6 °F 0.5 °F 1010.4 in West 11.1 mph 11.1 mph 70 % 0.0 in 0.0 W/m2 CLR
02:53 5.6 °F 0.3 °F 1010.7 in WNW 16.7 mph 16.7 mph 69 % 0.0 in 0.0 W/m2 CLR
02:58 5.6 °F 0.3 °F 1010.7 in WNW 16.7 mph 16.7 mph 69 % 0.0 in 0.0 W/m2 CLR
03:03 5.6 °F 0.3 °F 1010.7 in NW 14.8 mph 14.8 mph 69 % 0.0 in 0.0 W/m2 CLR
03:13 5.0 °F -0.2 °F 1010.7 in NW 14.5 mph 14.5 mph 69 % 0.0 in 0.0 W/m2 CLR
03:18 5.0 °F -0.2 °F 1011.1 in NW 18.5 mph 18.5 mph 69 % 0.0 in 0.0 W/m2 CLR
03:23 5.0 °F -0.4 °F 1011.1 in WNW 13.0 mph 13.0 mph 68 % 0.0 in 0.0 W/m2 CLR
03:28 5.6 °F 0.1 °F 1011.1 in NW 14.8 mph 14.8 mph 68 % 0.0 in 0.0 W/m2 CLR
03:33 5.6 °F 0.3 °F 1011.1 in West 11.1 mph 11.1 mph 69 % 0.0 in 0.0 W/m2 CLR
03:43 5.0 °F -0.4 °F 1011.1 in NNW 11.3 mph 11.3 mph 68 % 0.0 in 0.0 W/m2 CLR
03:48 5.0 °F -0.4 °F 1011.4 in WNW 9.3 mph 9.3 mph 68 % 0.0 in 0.0 W/m2 CLR
03:53 5.0 °F -0.4 °F 1011.4 in West 11.1 mph 11.1 mph 68 % 0.0 in 0.0 W/m2 CLR
04:03 5.6 °F -0.1 °F 1011.4 in NNW 16.7 mph 16.7 mph 67 % 0.0 in 0.0 W/m2 CLR
04:13 5.6 °F -0.3 °F 1011.7 in NW 14.5 mph 14.5 mph 66 % 0.0 in 0.0 W/m2 CLR
04:18 6.1 °F 0.0 °F 1011.7 in WNW 11.3 mph 11.3 mph 65 % 0.0 in 0.0 W/m2 CLR
04:33 5.6 °F -0.5 °F 1011.7 in NW 18.5 mph 18.5 mph 65 % 0.0 in 0.0 W/m2 CLR
04:38 5.6 °F -0.5 °F 1011.7 in NNW 14.8 mph 14.8 mph 65 % 0.0 in 0.0 W/m2 CLR
04:43 5.6 °F -0.5 °F 1011.7 in NNW 16.7 mph 16.7 mph 65 % 0.0 in 0.0 W/m2 CLR
04:48 5.6 °F -0.5 °F 1011.7 in Calm     65 % 0.0 in 0.0 W/m2 CLR
04:53 5.6 °F -0.5 °F 1012.1 in NNW 14.8 mph 14.8 mph 65 % 0.0 in 0.0 W/m2 CLR
05:03 5.6 °F -0.5 °F 1012.1 in NW 16.7 mph 16.7 mph 65 % 0.0 in 0.0 W/m2 CLR
05:13 5.6 °F -0.3 °F 1012.1 in NW 20.4 mph 20.4 mph 66 % 0.0 in 0.0 W/m2 CLR
05:18 5.6 °F -0.3 °F 1012.1 in NW 18.5 mph 18.5 mph 66 % 0.0 in 0.0 W/m2 CLR
05:33 6.1 °F 0.0 °F 1012.4 in North 27.8 mph 27.8 mph 65 % 0.0 in 0.0 W/m2 CLR
05:38 6.1 °F 0.0 °F 1012.8 in North 33.3 mph 33.3 mph 65 % 0.0 in 0.0 W/m2 CLR
05:43 6.1 °F 0.0 °F 1012.8 in North 29.6 mph 29.6 mph 65 % 0.0 in 0.0 W/m2 CLR
05:53 6.1 °F 0.0 °F 1013.1 in NNW 14.8 mph 14.8 mph 65 % 0.0 in 0.0 W/m2 CLR
05:58 6.1 °F 0.2 °F 1013.1 in North 19.3 mph 19.3 mph 66 % 0.0 in 0.0 W/m2 CLR
06:08 5.6 °F -0.5 °F 1013.4 in North 20.4 mph 20.4 mph 65 % 0.0 in 0.0 W/m2 CLR
06:13 5.6 °F -0.5 °F 1013.4 in NW 19.3 mph 19.3 mph 65 % 0.0 in 0.0 W/m2 CLR
06:18 6.1 °F 0.0 °F 1013.4 in NW 18.5 mph 18.5 mph 65 % 0.0 in 0.0 W/m2 CLR
06:23 6.1 °F -0.2 °F 1013.4 in WNW 14.8 mph 14.8 mph 64 % 0.0 in 0.0 W/m2 CLR
06:33 5.6 °F -0.7 °F 1013.8 in NW 16.7 mph 16.7 mph 64 % 0.0 in 0.0 W/m2 CLR
06:38 5.6 °F -0.7 °F 1013.8 in NW 25.9 mph 25.9 mph 64 % 0.0 in 0.0 W/m2 CLR
06:43 5.6 °F -0.9 °F 1013.8 in WNW 18.5 mph 18.5 mph 63 % 0.0 in 0.0 W/m2 CLR
06:48 5.6 °F -0.9 °F 1013.8 in NW 25.9 mph 25.9 mph 63 % 0.0 in 0.0 W/m2 CLR
06:53 5.6 °F -0.7 °F 1014.1 in NW 35.2 mph 35.2 mph 64 % 0.0 in 0.0 W/m2 CLR
07:03 5.6 °F -0.7 °F 1014.4 in North 27.8 mph 27.8 mph 64 % 0.0 in 0.0 W/m2 CLR
07:13 5.6 °F -0.7 °F 1014.4 in NW 22.5 mph 22.5 mph 64 % 0.0 in 0.0 W/m2 CLR
07:29 5.6 °F -0.5 °F 1014.4 in NW 29.6 mph 29.6 mph 65 % 0.0 in 0.0 W/m2 CLR
07:39 5.6 °F -0.3 °F 1014.8 in NNW 20.9 mph 20.9 mph 66 % 0.0 in 0.0 W/m2 CLR
07:44 5.6 °F -0.3 °F 1015.1 in NW 29.6 mph 29.6 mph 66 % 0.0 in 0.0 W/m2 CLR
07:49 5.6 °F -0.3 °F 1015.1 in NW 29.6 mph 29.6 mph 66 % 0.0 in 0.0 W/m2 CLR
07:54 5.6 °F -0.5 °F 1015.1 in NW 20.4 mph 20.4 mph 65 % 0.0 in 0.0 W/m2 CLR
08:04 5.6 °F -0.5 °F 1015.5 in NW 20.4 mph 20.4 mph 65 % 0.0 in 0.0 W/m2 CLR
08:09 5.6 °F -0.5 °F 1015.5 in NW 20.4 mph 20.4 mph 65 % 0.0 in 0.0 W/m2 OVC
08:14 5.6 °F -0.5 °F 1015.8 in NW 22.2 mph 22.2 mph 65 % 0.0 in 0.0 W/m2 OVC
08:24 5.6 °F -0.5 °F 1015.8 in NW 24.1 mph 24.1 mph 65 % 0.0 in 5.0 W/m2 OVC
08:34 5.6 °F -0.7 °F 1016.1 in NNW 18.5 mph 18.5 mph 64 % 0.0 in 14.0 W/m2 BKN
08:39 5.6 °F -0.7 °F 1016.1 in NW 13.0 mph 13.0 mph 64 % 0.0 in 18.0 W/m2 BKN
08:49 5.6 °F -0.7 °F 1016.1 in NW 16.7 mph 16.7 mph 64 % 0.0 in 25.0 W/m2 BKN
08:59 5.6 °F -0.7 °F 1016.5 in WNW 18.5 mph 18.5 mph 64 % 0.0 in 23.0 W/m2 BKN
09:04 5.0 °F -1.4 °F 1016.5 in WNW 20.4 mph 20.4 mph 63 % 0.0 in 21.0 W/m2 BKN
09:09 5.0 °F -1.4 °F 1016.5 in NW 25.9 mph 25.9 mph 63 % 0.0 in 23.0 W/m2 BKN
09:14 5.0 °F -1.4 °F 1016.5 in NW 13.0 mph 13.0 mph 63 % 0.0 in 25.0 W/m2 BKN
09:19 5.0 °F -1.4 °F 1016.8 in NW 9.7 mph 9.7 mph 63 % 0.0 in 28.0 W/m2 BKN
09:24 5.0 °F -1.4 °F 1016.8 in WNW 16.7 mph 16.7 mph 63 % 0.0 in 30.0 W/m2 BKN
09:29 5.0 °F -1.4 °F 1016.8 in NW 18.5 mph 18.5 mph 63 % 0.0 in 30.0 W/m2 BKN
09:39 5.0 °F -1.4 °F 1016.8 in NNW 25.9 mph 25.9 mph 63 % 0.0 in 47.0 W/m2 BKN
09:44 5.6 °F -0.9 °F 1016.8 in NW 22.5 mph 22.5 mph 63 % 0.0 in 141.0 W/m2 SCT
09:49 5.6 °F -1.2 °F 1016.8 in NW 18.5 mph 18.5 mph 62 % 0.0 in 171.0 W/m2 CLR
09:54 5.6 °F -1.4 °F 1017.2 in NW 18.5 mph 18.5 mph 61 % 0.0 in 144.0 W/m2 CLR
09:59 6.1 °F -1.1 °F 1017.2 in NW 25.9 mph 25.9 mph 60 % 0.0 in 137.0 W/m2 CLR
10:04 6.1 °F -1.1 °F 1017.5 in NNW 19.3 mph 19.3 mph 60 % 0.0 in 156.0 W/m2 CLR
10:09 6.7 °F -0.6 °F 1017.5 in NNW 20.4 mph 20.4 mph 60 % 0.0 in 167.0 W/m2 CLR
10:14 6.7 °F -1.0 °F 1017.5 in NNW 22.5 mph 22.5 mph 58 % 0.0 in 237.0 W/m2 CLR
10:19 6.7 °F -1.0 °F 1017.5 in NW 22.2 mph 22.2 mph 58 % 0.0 in 250.0 W/m2 CLR
10:25 6.7 °F -0.8 °F 1017.5 in NNW 24.1 mph 24.1 mph 59 % 0.0 in 260.0 W/m2 CLR
10:30 7.2 °F -0.5 °F 1017.5 in NW 29.6 mph 29.6 mph 58 % 0.0 in 271.0 W/m2 CLR
10:35 7.2 °F -0.3 °F 1017.5 in NW 24.1 mph 24.1 mph 59 % 0.0 in 283.0 W/m2 CLR
10:40 7.2 °F -0.5 °F 1017.8 in North 33.3 mph 33.3 mph 58 % 0.0 in 294.0 W/m2 CLR
10:44 7.2 °F -0.5 °F 1017.5 in NW 35.2 mph 35.2 mph 58 % 0.0 in 302.0 W/m2 CLR
10:45 7.2 °F -0.5 °F 1017.8 in NW 35.2 mph 35.2 mph 58 % 0.0 in 302.0 W/m2 CLR
11:35 7.2 °F -0.7 °F 1018.2 in North 46.3 mph 46.3 mph 57 % 0.0 in 366.0 W/m2 CLR
11:40 8.3 °F 0.1 °F 1018.2 in NW 33.3 mph 33.3 mph 56 % 0.0 in 387.0 W/m2 CLR
11:50 8.3 °F -0.2 °F 1018.5 in NW 27.8 mph 27.8 mph 55 % 0.0 in 406.0 W/m2 CLR
11:55 8.3 °F -0.2 °F 1018.5 in NW 29.6 mph 29.6 mph 55 % 0.0 in 397.0 W/m2 CLR
12:00 8.9 °F 0.3 °F 1018.5 in NNW 22.2 mph 22.2 mph 55 % 0.0 in 473.0 W/m2 CLR
12:05 8.9 °F 0.3 °F 1018.5 in North 22.2 mph 22.2 mph 55 % 0.0 in 487.0 W/m2 CLR
12:10 8.9 °F 0.1 °F 1018.8 in NW 25.9 mph 25.9 mph 54 % 0.0 in 524.0 W/m2 CLR
12:15 8.9 °F 0.1 °F 1018.8 in North 27.8 mph 27.8 mph 54 % 0.0 in 540.0 W/m2 CLR
12:20 9.4 °F 0.3 °F 1018.8 in North 33.3 mph 33.3 mph 53 % 0.0 in 287.0 W/m2 CLR
12:25 8.9 °F 0.1 °F 1018.8 in North 27.8 mph 27.8 mph 54 % 0.0 in 550.0 W/m2 CLR
12:30 8.9 °F -0.2 °F 1018.8 in North 35.2 mph 35.2 mph 53 % 0.0 in 550.0 W/m2 CLR
12:35 8.9 °F 0.1 °F 1018.8 in NNW 30.6 mph 30.6 mph 54 % 0.0 in 487.0 W/m2 CLR
12:40 8.9 °F 0.1 °F 1018.8 in North 31.5 mph 31.5 mph 54 % 0.0 in 81.0 W/m2 CLR
12:45 8.3 °F -0.4 °F 1018.8 in North 32.2 mph 32.2 mph 54 % 0.0 in 450.0 W/m2 CLR
12:50 8.9 °F 0.3 °F 1018.8 in NNW 27.8 mph 27.8 mph 55 % 0.0 in 524.0 W/m2 CLR
12:55 9.4 °F 0.6 °F 1018.8 in NNW 37.0 mph 37.0 mph 54 % 0.0 in 506.0 W/m2 CLR
13:00 9.4 °F 0.3 °F 1018.8 in NW 25.7 mph 25.7 mph 53 % 0.0 in 545.0 W/m2 CLR
13:05 10.0 °F 0.3 °F 1018.8 in North 33.3 mph 33.3 mph 51 % 0.0 in 506.0 W/m2 CLR
13:10 9.4 °F -0.2 °F 1018.8 in NW 31.5 mph 31.5 mph 51 % 0.0 in 497.0 W/m2 CLR
13:15 10.0 °F 0.3 °F 1018.8 in NNW 38.9 mph 38.9 mph 51 % 0.0 in 450.0 W/m2 CLR
13:20 10.0 °F 0.3 °F 1018.8 in NNE 20.9 mph 20.9 mph 51 % 0.0 in 443.0 W/m2 CLR
13:25 9.4 °F -0.4 °F 1018.8 in NNW 31.5 mph 31.5 mph 50 % 0.0 in 429.0 W/m2 CLR
13:35 10.0 °F 0.1 °F 1018.5 in NNW 38.9 mph 38.9 mph 50 % 0.0 in 418.0 W/m2 CLR
13:45 10.0 °F -0.2 °F 1018.5 in North 33.3 mph 33.3 mph 49 % 0.0 in 413.0 W/m2 CLR
13:50 9.4 °F -0.4 °F 1018.5 in NNW 27.8 mph 27.8 mph 50 % 0.0 in 415.0 W/m2 CLR
13:55 10.0 °F -0.5 °F 1018.5 in NNW 31.5 mph 31.5 mph 48 % 0.0 in 406.0 W/m2 CLR
14:00 10.0 °F -0.5 °F 1018.5 in North 31.5 mph 31.5 mph 48 % 0.0 in 401.0 W/m2 CLR
14:10 10.0 °F -0.8 °F 1018.5 in NNW 29.6 mph 29.6 mph 47 % 0.0 in 392.0 W/m2 CLR
14:11 10.0 °F -0.8 °F 1018.5 in NNW 29.6 mph 29.6 mph 47 % 0.0 in 392.0 W/m2 CLR
14:16 10.0 °F -1.1 °F 1018.8 in North 37.0 mph 37.0 mph 46 % 0.0 in 388.0 W/m2 CLR
14:21 10.0 °F -0.8 °F 1018.8 in North 38.9 mph 38.9 mph 47 % 0.0 in 378.0 W/m2 CLR
14:26 10.0 °F -0.8 °F 1018.8 in North 35.2 mph 35.2 mph 47 % 0.0 in 369.0 W/m2 CLR
14:31 10.0 °F -0.2 °F 1018.8 in North 42.6 mph 42.6 mph 49 % 0.0 in 367.0 W/m2 CLR
14:49 10.6 °F 0.0 °F 1019.2 in North 33.3 mph 33.3 mph 48 % 0.0 in 339.0 W/m2 CLR
15:04 9.4 °F -0.4 °F 1019.2 in North 24.1 mph 24.1 mph 50 % 0.0 in 308.0 W/m2 CLR
15:24 10.0 °F -0.5 °F 1019.2 in NNW 25.9 mph 25.9 mph 48 % 0.0 in 265.0 W/m2 CLR
15:29 10.0 °F -0.8 °F 1019.5 in North 24.1 mph 24.1 mph 47 % 0.0 in 255.0 W/m2 CLR
15:39 10.0 °F -0.8 °F 1019.5 in NNE 37.0 mph 37.0 mph 47 % 0.0 in 232.0 W/m2 CLR
15:44 10.0 °F -1.1 °F 1019.9 in NNE 33.3 mph 33.3 mph 46 % 0.0 in 218.0 W/m2 CLR
15:49 10.0 °F -0.8 °F 1019.9 in NNW 35.4 mph 35.4 mph 47 % 0.0 in 204.0 W/m2 CLR
15:59 9.4 °F -1.6 °F 1019.9 in NNE 25.9 mph 25.9 mph 46 % 0.0 in 181.0 W/m2 CLR
16:04 9.4 °F -1.6 °F 1019.9 in North 31.5 mph 31.5 mph 46 % 0.0 in 165.0 W/m2 CLR
16:09 9.4 °F -1.9 °F 1020.2 in North 33.3 mph 33.3 mph 45 % 0.0 in 148.0 W/m2 CLR
16:14 9.4 °F -1.9 °F 1020.2 in NNW 33.3 mph 33.3 mph 45 % 0.0 in 137.0 W/m2 CLR
16:19 9.4 °F -2.2 °F 1020.2 in NNE 30.6 mph 30.6 mph 44 % 0.0 in 123.0 W/m2 CLR
16:24 9.4 °F -2.5 °F 1020.2 in NNW 24.1 mph 24.1 mph 43 % 0.0 in 111.0 W/m2 CLR
16:34 8.9 °F -3.1 °F 1020.2 in North 25.9 mph 25.9 mph 43 % 0.0 in 84.0 W/m2 CLR
16:39 8.9 °F -2.7 °F 1020.2 in NNW 25.9 mph 25.9 mph 44 % 0.0 in 67.0 W/m2 SCT
16:44 8.9 °F -2.7 °F 1020.2 in North 31.5 mph 31.5 mph 44 % 0.0 in 56.0 W/m2 SCT
16:49 8.9 °F -2.7 °F 1020.2 in North 29.6 mph 29.6 mph 44 % 0.0 in 49.0 W/m2 SCT
16:54 8.3 °F -2.9 °F 1020.5 in NNW 31.5 mph 31.5 mph 45 % 0.0 in 35.0 W/m2 BKN
16:59 8.3 °F -2.9 °F 1020.5 in NW 24.1 mph 24.1 mph 45 % 0.0 in 28.0 W/m2 BKN
17:04 8.3 °F -2.6 °F 1020.5 in North 27.8 mph 27.8 mph 46 % 0.0 in 19.0 W/m2 BKN
17:14 8.3 °F -2.3 °F 1020.5 in NNW 20.4 mph 20.4 mph 47 % 0.0 in 12.0 W/m2 BKN
17:19 7.8 °F -2.6 °F 1020.9 in NW 16.7 mph 16.7 mph 48 % 0.0 in 11.0 W/m2 BKN
17:29 7.8 °F -2.3 °F 1020.9 in NNW 19.3 mph 19.3 mph 49 % 0.0 in 5.0 W/m2 OVC
17:39 7.2 °F -2.5 °F 1021.2 in NNW 22.2 mph 22.2 mph 50 % 0.0 in 0.0 W/m2 OVC
17:44 7.2 °F -2.5 °F 1021.2 in North 20.9 mph 20.9 mph 50 % 0.0 in 0.0 W/m2 CLR
17:45 7.2 °F -2.3 °F 1021.2 in NNW 20.4 mph 20.4 mph 51 % 0.0 in 0.0 W/m2 CLR
17:50 7.2 °F -2.3 °F 1021.6 in North 25.9 mph 25.9 mph 51 % 0.0 in 0.0 W/m2 CLR
17:55 7.2 °F -2.3 °F 1021.6 in North 27.8 mph 27.8 mph 51 % 0.0 in 0.0 W/m2 CLR
18:00 7.2 °F -2.3 °F 1021.6 in North 24.1 mph 24.1 mph 51 % 0.0 in 0.0 W/m2 CLR
18:05 6.7 °F -2.5 °F 1021.6 in NNW 18.5 mph 18.5 mph 52 % 0.0 in 0.0 W/m2 CLR
18:10 6.7 °F -2.5 °F 1021.6 in NNW 17.7 mph 17.7 mph 52 % 0.0 in 0.0 W/m2 CLR
18:20 6.7 °F -2.2 °F 1021.9 in NW 13.0 mph 13.0 mph 53 % 0.0 in 0.0 W/m2 CLR
18:25 6.1 °F -2.5 °F 1021.9 in NNW 14.8 mph 14.8 mph 54 % 0.0 in 0.0 W/m2 CLR
18:30 6.1 °F -2.5 °F 1021.9 in NW 14.8 mph 14.8 mph 54 % 0.0 in 0.0 W/m2 CLR
18:35 6.1 °F -2.3 °F 1022.2 in NW 13.0 mph 13.0 mph 55 % 0.0 in 0.0 W/m2 CLR
18:50 5.6 °F -2.3 °F 1022.2 in NW 7.4 mph 7.4 mph 57 % 0.0 in 0.0 W/m2 CLR
19:00 4.4 °F -3.1 °F 1022.6 in NW 8.0 mph 8.0 mph 58 % 0.0 in 0.0 W/m2 CLR
19:05 4.4 °F -3.1 °F 1022.6 in WNW 9.3 mph 9.3 mph 58 % 0.0 in 0.0 W/m2 CLR
19:11 3.9 °F -3.6 °F 1022.9 in WNW 11.1 mph 11.1 mph 58 % 0.0 in 0.0 W/m2 CLR
19:16 3.9 °F -3.4 °F 1022.9 in NW 11.1 mph 11.1 mph 59 % 0.0 in 0.0 W/m2 CLR
19:21 3.3 °F -3.9 °F 1022.9 in NW 7.4 mph 7.4 mph 59 % 0.0 in 0.0 W/m2 CLR
19:26 3.3 °F -3.7 °F 1023.2 in NW 5.6 mph 5.6 mph 60 % 0.0 in 0.0 W/m2 CLR
19:36 2.8 °F -4.0 °F 1023.6 in WNW 5.6 mph 5.6 mph 61 % 0.0 in 0.0 W/m2 CLR
19:46 2.8 °F -4.0 °F 1023.9 in WNW 11.1 mph 11.1 mph 61 % 0.0 in 0.0 W/m2 CLR
19:51 2.2 °F -4.3 °F 1023.9 in NW 5.6 mph 5.6 mph 62 % 0.0 in 0.0 W/m2 CLR
19:56 2.2 °F -4.1 °F 1023.9 in WNW 9.3 mph 9.3 mph 63 % 0.0 in 0.0 W/m2 CLR
20:01 2.2 °F -4.1 °F 1023.9 in NW 13.0 mph 13.0 mph 63 % 0.0 in 0.0 W/m2 CLR
20:11 1.7 °F -4.6 °F 1024.3 in Calm     63 % 0.0 in 0.0 W/m2 CLR
20:16 1.7 °F -4.2 °F 1024.3 in Calm     65 % 0.0 in 0.0 W/m2 CLR
20:31 1.1 °F -4.6 °F 1024.3 in WNW 11.1 mph 11.1 mph 66 % 0.0 in 0.0 W/m2 CLR
20:36 0.6 °F -5.1 °F 1024.3 in WNW 9.3 mph 9.3 mph 66 % 0.0 in 0.0 W/m2 CLR
20:41 0.6 °F -5.1 °F 1024.3 in WNW 7.4 mph 7.4 mph 66 % 0.0 in 0.0 W/m2 CLR
20:46 0.0 °F -5.6 °F 1024.3 in WNW 9.3 mph 9.3 mph 66 % 0.0 in 0.0 W/m2 CLR
20:51 0.0 °F -5.6 °F 1024.6 in WNW 11.1 mph 11.1 mph 66 % 0.0 in 0.0 W/m2 CLR
20:56 0.0 °F -5.6 °F 1024.6 in WNW 11.1 mph 11.1 mph 66 % 0.0 in 0.0 W/m2 CLR
21:01 -0.6 °F -5.9 °F 1024.6 in WNW 9.7 mph 9.7 mph 67 % 0.0 in 0.0 W/m2 CLR
21:06 -0.6 °F -5.7 °F 1024.6 in WNW 9.3 mph 9.3 mph 68 % 0.0 in 0.0 W/m2 CLR
21:11 -0.6 °F -5.7 °F 1024.9 in West 7.4 mph 7.4 mph 68 % 0.0 in 0.0 W/m2 CLR
21:16 -1.1 °F -6.3 °F 1024.9 in WNW 9.3 mph 9.3 mph 68 % 0.0 in 0.0 W/m2 CLR
21:22 -1.1 °F -6.3 °F 1024.9 in WNW 1.9 mph 1.9 mph 68 % 0.0 in 0.0 W/m2 CLR
21:27 -1.1 °F -6.3 °F 1024.9 in West 11.1 mph 11.1 mph 68 % 0.0 in 0.0 W/m2 CLR
21:32 -1.1 °F -6.3 °F 1024.9 in West 11.1 mph 11.1 mph 68 % 0.0 in 0.0 W/m2 CLR
21:47 -0.6 °F -5.6 °F 1024.9 in West 14.8 mph 14.8 mph 69 % 0.0 in 0.0 W/m2 CLR
21:52 -0.6 °F -5.6 °F 1024.9 in West 13.0 mph 13.0 mph 69 % 0.0 in 0.0 W/m2 CLR
21:57 -0.6 °F -5.6 °F 1024.6 in WNW 14.8 mph 14.8 mph 69 % 0.0 in 0.0 W/m2 CLR
22:02 -0.6 °F -5.7 °F 1024.6 in WNW 18.5 mph 18.5 mph 68 % 0.0 in 0.0 W/m2 CLR
22:07 -0.6 °F -5.6 °F 1024.6 in West 20.4 mph 20.4 mph 69 % 0.0 in 0.0 W/m2 CLR
22:27 0.6 °F -4.5 °F 1024.9 in West 11.3 mph 11.3 mph 69 % 0.0 in 0.0 W/m2 CLR
22:32 0.6 °F -4.3 °F 1024.9 in West 11.1 mph 11.1 mph 70 % 0.0 in 0.0 W/m2 CLR
22:37 0.6 °F -4.1 °F 1024.9 in West 7.4 mph 7.4 mph 71 % 0.0 in 0.0 W/m2 CLR
22:42 0.6 °F -4.1 °F 1025.3 in WSW 5.6 mph 5.6 mph 71 % 0.0 in 0.0 W/m2 CLR
22:47 0.0 °F -4.4 °F 1025.6 in West 7.4 mph 7.4 mph 72 % 0.0 in 0.0 W/m2 CLR
22:52 0.0 °F -4.4 °F 1025.6 in WSW 5.6 mph 5.6 mph 72 % 0.0 in 0.0 W/m2 CLR
22:57 0.0 °F -4.4 °F 1025.6 in WSW 5.6 mph 5.6 mph 72 % 0.0 in 0.0 W/m2 CLR
23:07 -0.6 °F -4.8 °F 1026.0 in WSW 5.6 mph 5.6 mph 73 % 0.0 in 0.0 W/m2 CLR
23:17 -0.6 °F -4.8 °F 1026.3 in West 6.4 mph 6.4 mph 73 % 0.0 in 0.0 W/m2 CLR
23:27 -1.1 °F -5.5 °F 1026.6 in West 5.6 mph 5.6 mph 72 % 0.0 in 0.0 W/m2 CLR
23:32 -1.1 °F -5.5 °F 1026.6 in Calm     72 % 0.0 in 0.0 W/m2 CLR
23:37 -1.1 °F -5.3 °F 1026.6 in WNW 11.3 mph 11.3 mph 73 % 0.0 in 0.0 W/m2 CLR
23:42 -1.1 °F -5.7 °F 1026.6 in WNW 20.9 mph 20.9 mph 71 % 0.0 in 0.0 W/m2 CLR
23:47 -1.1 °F -6.3 °F 1026.6 in NW 18.5 mph 18.5 mph 68 % 0.0 in 0.0 W/m2 CLR
23:52 -1.7 °F -7.0 °F 1026.6 in WNW 16.7 mph 16.7 mph 67 % 0.0 in 0.0 W/m2 CLR
Lo Temps de Massalio
Compliments of Weather Underground - 1 mb